Portada
METAR-TAF:

METAR-TAF

Aeroports :

Broken Hill, Austràlia

latitud: 32-00-06S, longitud: 141-28-18E, altitud: 292 m

Observació

L'informe es va fer fa 43 minuts, a les 23:00 UTC
Vent 19 kt del Oest
Temperatura 8°C
Humitat 76%
Pressió 1009 hPa
Visibilitat 10 km o més
Núvols disperses a una alçada de 1700 ft
Núvols disperses a una alçada de 5600 ft
Núvols disperses a una alçada de 9500 ft

METAR: YBHI 242300Z AUTO 27019KT 9999 // SCT017 SCT056 SCT095 08/04 Q1009

Hora: 09:13 (23:43 UTC)


TAF: manca

Observacions i pronòstics meteorològics de més de 4000 aeroports (METAR i TAF).

Les estacions disponibles són els punts grocs i vermells al mapa.

Posi el ratolí al punt desitjat per veure el nom de l'estació.

Feu clic per veure les observacions i els pronòstics meteorològics.

Per canviar el mapa: feu clic els botons verds amb una creu de color negre per apropar; al botó verd amb un guió per allunyar la imatge; o en les fletxes verdes per a mapes adjacents.


METAR-TAF: